Date,TemperatureHighF,TemperatureAvgF,TemperatureLowF,DewpointHighF,DewpointAvgF,DewpointLowF,HumidityHigh,HumidityAvg,HumidityLow,PressureMaxIn,PressureMinIn,WindSpeedMaxMPH,WindSpeedAvgMPH,GustSpeedMaxMPH,PrecipitationSumIn
2013-2-1,28.4,24.2,19.2,20.1,13.7,8.6,83,64,52,30.17,29.64,25,4,27,0.33
2013-2-2,27.9,20.4,10.2,16.3,12.0,5.5,86,70,55,30.23,30.03,13,-3,15,0.00
2013-2-3,30.0,22.5,15.3,17.8,15.5,11.7,88,75,54,30.05,29.78,7,0,7,0.00
2013-2-4,27.1,21.5,13.1,18.7,13.7,9.0,86,72,53,29.97,29.78,21,2,24,0.00
2013-2-5,29.1,22.4,14.5,22.3,14.3,10.8,88,72,52,30.04,29.90,6,0,6,0.00
2013-2-6,34.9,27.0,18.5,26.2,17.5,6.3,90,69,39,30.39,29.89,22,2,25,0.00
2013-2-7,26.1,19.6,12.7,10.6,8.0,5.5,81,61,45,30.56,30.38,8,1,9,0.00
2013-2-8,29.8,23.7,19.8,26.8,18.2,8.4,92,80,61,30.39,29.84,13,1,18,0.00
2013-2-9,29.1,19.9,2.5,22.3,12.4,-3.5,92,74,38,30.39,29.86,13,2,16,0.14
2013-2-10,30.0,10.4,-7.6,12.0,1.5,-12.1,87,69,40,30.54,30.29,5,0,5,0.14
2013-2-11,40.5,31.9,10.9,37.0,28.2,6.3,93,86,67,30.29,29.65,20,2,22,0.21
2013-2-12,38.5,36.4,33.8,32.4,29.1,26.1,89,75,68,29.94,29.69,28,4,29,0.00
2013-2-13,40.5,33.8,29.7,28.9,25.6,22.5,92,73,49,29.91,29.73,9,0,13,0.00
2013-2-14,40.8,31.0,20.8,27.7,24.0,17.6,90,76,58,29.95,29.73,12,1,14,0.00
2013-2-15,47.5,38.5,29.1,32.0,28.4,25.5,88,68,46,30.02,29.88,18,2,19,0.00
2013-2-16,33.8,30.0,24.8,29.1,19.6,11.3,90,66,52,30.02,29.86,13,2,14,0.02
2013-2-17,25.3,20.5,13.6,12.9,6.9,1.2,65,55,40,29.96,29.68,30,5,31,0.00
2013-2-18,28.4,17.9,8.8,11.5,4.5,-0.8,74,56,39,30.23,29.96,25,5,27,0.00
2013-2-19,42.6,30.1,16.9,34.0,23.1,10.9,93,76,53,30.17,29.62,20,1,24,0.08
2013-2-20,33.1,28.6,25.5,28.2,17.8,12.0,82,64,46,29.90,29.66,25,6,31,0.00
2013-2-21,25.9,21.5,18.9,17.4,12.9,9.1,80,69,61,30.40,29.88,23,5,27,0.00
2013-2-22,37.6,28.8,19.0,27.9,20.9,14.5,85,72,60,30.45,30.23,9,1,14,0.00
2013-2-23,36.1,34.8,33.3,34.3,30.9,26.6,94,86,72,30.24,29.87,13,1,17,0.02
2013-2-24,39.4,34.3,32.7,36.1,30.7,27.0,95,87,71,29.99,29.78,19,2,20,0.06
2013-2-25,42.6,34.0,23.9,31.6,27.7,21.0,92,78,56,30.25,29.99,9,0,12,0.00
2013-2-26,45.7,35.7,25.7,32.9,28.4,23.2,92,76,55,30.32,30.04,13,1,13,0.00
2013-2-27,41.7,36.4,32.7,38.8,33.7,28.8,94,90,80,30.04,29.56,15,1,17,0.78
2013-2-28,43.2,37.5,33.8,38.7,34.6,32.2,95,89,76,29.61,29.55,9,0,12,0.08